Time;durP1;ratioP1;P1;durP2;ratioP2;P2;SDS_P1;SDS_P2;PMS_P1;PMS_P2;Temp;Humidity;BMP_temperature;BMP_pressure;BME280_temperature;BME280_humidity;BME280_pressure;Samples;Min_cycle;Max_cycle;Signal;HPM_P1;HPM_P2
2022/01/02 00:00:40;;;;;;;;;;;;;;;9.93;85.52;101250.88;5030617;27;19910;-71
2022/01/02 00:03:07;;;;;;;;;;;;;;;10.03;84.91;101260.75;5053160;27;20103;-69
2022/01/02 00:05:33;;;;;;;;;;;;;;;10.01;84.81;101260.00;5048404;27;19940;-69
2022/01/02 00:08:08;;;;;;;;;;;;;;;9.96;85.38;101242.69;5030181;27;20008;-69
2022/01/02 00:10:34;;;;;;;;;;;;;;;9.94;85.36;101228.78;5017980;27;19920;-70
2022/01/02 00:13:00;;;;;;;;;;;;;;;10.03;85.04;101239.59;5010937;27;19904;-70
2022/01/02 00:15:25;;;;;;;;;;;;;;;10.09;84.64;101232.00;5011275;27;19904;-68
2022/01/02 00:17:51;;;;;;;;;;;;;;;10.14;84.04;101213.13;5012633;27;19919;-68
2022/01/02 00:20:18;;;;;;;;;;;;;;;10.18;83.75;101219.88;5009413;27;20679;-69
2022/01/02 00:22:48;;;;;;;;;;;;;;;10.16;83.89;101213.00;5014330;27;19916;-69
2022/01/02 00:25:26;;;;;;;;;;;;;;;10.17;84.18;101218.19;5012350;27;19915;-69
2022/01/02 00:27:52;;;;;;;;;;;;;;;10.16;83.78;101221.78;5028732;27;19912;-69
2022/01/02 00:30:17;;;;;;;;;;;;;;;10.10;84.10;101220.47;5029145;27;19926;-69
2022/01/02 00:32:42;;;;;;;;;;;;;;;10.15;84.16;101217.44;5033397;27;19955;-69
2022/01/02 00:35:08;;;;;;;;;;;;;;;10.10;83.81;101214.34;5030005;27;20009;-69
2022/01/02 00:37:33;;;;;;;;;;;;;;;10.05;84.06;101222.63;5022975;27;19903;-69
2022/01/02 00:39:58;;;;;;;;;;;;;;;10.07;84.25;101243.69;5030957;27;20028;-71
2022/01/02 00:42:30;;;;;;;;;;;;;;;10.16;83.86;101248.22;5021746;27;19908;-69
2022/01/02 00:44:56;;;;;;;;;;;;;;;10.14;83.69;101253.63;5012317;27;20028;-70
2022/01/02 00:47:25;;;;;;;;;;;;;;;10.13;83.84;101256.41;5035219;27;19934;-70
2022/01/02 00:50:19;;;;;;;;;;;;;;;10.11;83.53;101266.25;5031840;27;20215;-70
2022/01/02 00:52:46;;;;;;;;;;;;;;;10.04;83.93;101252.69;5011283;27;19919;-70
2022/01/02 00:55:12;;;;;;;;;;;;;;;10.07;83.71;101255.09;5050946;27;19945;-69
2022/01/02 00:57:37;;;;;;;;;;;;;;;10.08;83.53;101240.91;5036665;27;20309;-69
2022/01/02 01:00:04;;;;;;;;;;;;;;;10.08;83.54;101253.28;5012912;27;20681;-69
2022/01/02 01:02:33;;;;;;;;;;;;;;;10.04;83.77;101263.28;5028998;27;20413;-68
2022/01/02 01:05:00;;;;;;;;;;;;;;;10.13;83.57;101257.25;5030201;27;19914;-69
2022/01/02 01:07:26;;;;;;;;;;;;;;;10.07;83.62;101251.63;5031153;27;19907;-69
2022/01/02 01:09:51;;;;;;;;;;;;;;;10.06;83.44;101256.03;5026728;27;20387;-72
2022/01/02 01:12:16;;;;;;;;;;;;;;;10.02;83.37;101243.19;5030066;27;20493;-69
2022/01/02 01:14:41;;;;;;;;;;;;;;;10.10;83.17;101249.56;5025462;27;20496;-70
2022/01/02 01:17:07;;;;;;;;;;;;;;;10.02;83.39;101251.13;5010494;27;20029;-69
2022/01/02 01:19:33;;;;;;;;;;;;;;;10.03;83.67;101240.44;5035066;27;20020;-69
2022/01/02 01:21:58;;;;;;;;;;;;;;;10.05;83.18;101253.53;5043628;27;19908;-70
2022/01/02 01:24:24;;;;;;;;;;;;;;;10.06;83.09;101255.22;5033683;27;20666;-69
2022/01/02 01:26:53;;;;;;;;;;;;;;;10.08;83.40;101259.41;5031601;27;20284;-69
2022/01/02 01:29:18;;;;;;;;;;;;;;;10.08;83.21;101262.06;5029813;27;19911;-69
2022/01/02 01:31:44;;;;;;;;;;;;;;;10.05;83.00;101253.53;5029424;27;20297;-70
2022/01/02 01:34:09;;;;;;;;;;;;;;;10.05;83.24;101258.81;5028685;27;20399;-69
2022/01/02 01:36:34;;;;;;;;;;;;;;;10.07;83.18;101254.25;5023591;27;20310;-71
2022/01/02 01:38:59;;;;;;;;;;;;;;;10.09;82.85;101245.22;5027490;27;20082;-70
2022/01/02 01:41:29;;;;;;;;;;;;;;;10.03;83.02;101244.88;5007494;27;19908;-69
2022/01/02 01:44:07;;;;;;;;;;;;;;;10.01;83.19;101245.00;5040084;27;19927;-69
2022/01/02 01:46:32;;;;;;;;;;;;;;;10.03;83.25;101236.94;5047871;27;20296;-70
2022/01/02 01:48:57;;;;;;;;;;;;;;;10.03;83.06;101234.31;5049056;27;19907;-69
2022/01/02 01:51:23;;;;;;;;;;;;;;;10.10;82.60;101235.50;5048980;27;19952;-69
2022/01/02 01:53:48;;;;;;;;;;;;;;;10.14;82.34;101244.88;5031548;27;20016;-70
2022/01/02 01:56:13;;;;;;;;;;;;;;;10.16;82.72;101240.28;5048518;27;19907;-68
2022/01/02 01:58:38;;;;;;;;;;;;;;;10.13;82.71;101230.78;5051210;27;20069;-68
2022/01/02 02:01:04;;;;;;;;;;;;;;;10.12;82.61;101230.91;5050625;27;20417;-69
2022/01/02 02:03:29;;;;;;;;;;;;;;;10.04;82.62;101220.09;5049263;27;19903;-71
2022/01/02 02:05:54;;;;;;;;;;;;;;;10.02;82.60;101211.47;5029963;27;19949;-69
2022/01/02 02:08:24;;;;;;;;;;;;;;;10.03;82.72;101213.16;5025295;27;20012;-69
2022/01/02 02:10:55;;;;;;;;;;;;;;;10.02;82.65;101217.59;5029299;27;19927;-69
2022/01/02 02:13:20;;;;;;;;;;;;;;;10.00;82.79;101218.66;5012340;27;20500;-69
2022/01/02 02:15:45;;;;;;;;;;;;;;;10.01;82.54;101225.63;5026783;27;20005;-69
2022/01/02 02:18:11;;;;;;;;;;;;;;;10.04;82.72;101223.59;5028495;27;19903;-69
2022/01/02 02:20:36;;;;;;;;;;;;;;;10.02;83.09;101217.59;5028901;27;20003;-70
2022/01/02 02:23:01;;;;;;;;;;;;;;;10.03;82.18;101203.41;5012800;27;19914;-69
2022/01/02 02:25:27;;;;;;;;;;;;;;;10.01;82.40;101207.13;5028096;27;20508;-68
2022/01/02 02:27:53;;;;;;;;;;;;;;;10.02;82.80;101206.19;5010124;27;20365;-69
2022/01/02 02:30:18;;;;;;;;;;;;;;;9.92;82.99;101203.41;5028062;27;20717;-69
2022/01/02 02:32:43;;;;;;;;;;;;;;;9.97;83.03;101194.16;5028815;27;19914;-70
2022/01/02 02:35:09;;;;;;;;;;;;;;;10.02;82.25;101190.31;5028626;27;19911;-71
2022/01/02 02:37:37;;;;;;;;;;;;;;;9.97;82.37;101191.50;5020026;27;19969;-69
2022/01/02 02:40:02;;;;;;;;;;;;;;;9.96;83.02;101192.47;5001428;27;20690;-69
2022/01/02 02:42:40;;;;;;;;;;;;;;;9.90;83.25;101182.38;4992724;28;19904;-69
2022/01/02 02:48:59;;;;;;;;;;;;;;;9.86;83.46;101183.59;5021817;27;19923;-70
2022/01/02 02:50:43;;;;;;;;;;;;;;;9.85;83.99;101173.97;5026211;27;19927;-69
2022/01/02 02:53:08;;;;;;;;;;;;;;;9.84;83.37;101153.78;5027627;28;19904;-69
2022/01/02 02:55:43;;;;;;;;;;;;;;;9.92;83.28;101132.88;5028519;27;19979;-69
2022/01/02 02:58:27;;;;;;;;;;;;;;;9.88;83.38;101147.28;5027493;28;20384;-70
2022/01/02 03:00:53;;;;;;;;;;;;;;;9.81;83.39;101146.09;5028675;27;19917;-70
2022/01/02 03:03:18;;;;;;;;;;;;;;;9.74;83.77;101134.34;5027094;28;20162;-70
2022/01/02 03:05:43;;;;;;;;;;;;;;;9.82;83.87;101137.22;5026331;27;19910;-69
2022/01/02 03:08:08;;;;;;;;;;;;;;;9.87;82.89;101118.34;5009339;28;19967;-71
2022/01/02 03:10:33;;;;;;;;;;;;;;;9.85;83.04;101126.41;5020626;27;19923;-71
2022/01/02 03:12:59;;;;;;;;;;;;;;;9.88;83.10;101136.72;5030129;28;19914;-69
2022/01/02 03:15:24;;;;;;;;;;;;;;;9.92;82.46;101147.91;5019601;28;19904;-68
2022/01/02 03:17:49;;;;;;;;;;;;;;;9.95;82.42;101148.47;5028122;28;19933;-70
2022/01/02 03:20:14;;;;;;;;;;;;;;;9.95;82.73;101143.19;5014995;28;19914;-69
2022/01/02 03:22:39;;;;;;;;;;;;;;;9.99;82.53;101150.91;5009937;28;19924;-70
2022/01/02 03:25:05;;;;;;;;;;;;;;;10.00;82.48;101148.13;5009825;28;19907;-70
2022/01/02 03:27:32;;;;;;;;;;;;;;;9.97;82.43;101141.28;5010065;28;19918;-70
2022/01/02 03:29:57;;;;;;;;;;;;;;;10.02;82.42;101142.72;5029209;28;19914;-69
2022/01/02 03:32:22;;;;;;;;;;;;;;;10.01;82.24;101131.31;5010449;28;20318;-69
2022/01/02 03:34:48;;;;;;;;;;;;;;;9.97;82.17;101135.16;5031073;28;20066;-70
2022/01/02 03:37:13;;;;;;;;;;;;;;;9.96;82.42;101144.88;5011899;27;19908;-70
2022/01/02 03:39:39;;;;;;;;;;;;;;;9.96;82.53;101131.66;5012237;27;19915;-70
2022/01/02 03:42:04;;;;;;;;;;;;;;;9.94;82.50;101124.81;5033854;27;20019;-69
2022/01/02 03:44:30;;;;;;;;;;;;;;;9.99;83.08;101142.97;5021156;27;20040;-68
2022/01/02 03:46:55;;;;;;;;;;;;;;;9.95;83.58;101137.06;5022703;27;20184;-69
2022/01/02 03:49:20;;;;;;;;;;;;;;;9.96;82.79;101131.66;5029928;27;20004;-70
2022/01/02 03:51:45;;;;;;;;;;;;;;;9.91;82.85;101128.56;5013554;28;20008;-69
2022/01/02 03:54:11;;;;;;;;;;;;;;;9.97;82.97;101119.31;5015716;28;19912;-71
2022/01/02 03:56:36;;;;;;;;;;;;;;;9.88;83.42;101117.38;5011916;27;19908;-69
2022/01/02 03:59:01;;;;;;;;;;;;;;;9.90;83.32;101097.81;5010600;27;19975;-69
2022/01/02 04:01:26;;;;;;;;;;;;;;;9.88;83.02;101091.78;5010405;28;20012;-69
2022/01/02 04:03:51;;;;;;;;;;;;;;;9.85;83.64;101083.28;5011726;27;19972;-69
2022/01/02 04:06:17;;;;;;;;;;;;;;;9.84;83.96;101081.59;5022466;27;19911;-69
2022/01/02 04:08:42;;;;;;;;;;;;;;;9.78;84.27;101083.75;5030472;27;19977;-71
2022/01/02 04:11:08;;;;;;;;;;;;;;;9.79;84.50;101085.44;5011248;27;19983;-70
2022/01/02 04:13:33;;;;;;;;;;;;;;;9.75;84.54;101078.72;5010362;27;19907;-69
2022/01/02 04:15:58;;;;;;;;;;;;;;;9.72;84.78;101072.84;5009993;28;19908;-68
2022/01/02 04:18:23;;;;;;;;;;;;;;;9.74;84.37;101071.78;5010232;27;19908;-68
2022/01/02 04:20:49;;;;;;;;;;;;;;;9.78;84.78;101072.34;5012240;27;19948;-69
2022/01/02 04:23:14;;;;;;;;;;;;;;;9.79;84.55;101074.03;5032132;27;19908;-69
2022/01/02 04:25:39;;;;;;;;;;;;;;;9.74;84.94;101077.06;5029286;27;20897;-70
2022/01/02 04:28:05;;;;;;;;;;;;;;;9.74;85.28;101077.06;5027865;27;19952;-70
2022/01/02 04:30:30;;;;;;;;;;;;;;;9.77;85.25;101075.94;5027797;27;20012;-70
2022/01/02 04:32:55;;;;;;;;;;;;;;;9.77;85.05;101060.94;5014282;27;19996;-69
2022/01/02 04:35:20;;;;;;;;;;;;;;;9.72;85.65;101067.56;5028922;27;20013;-68
2022/01/02 04:37:46;;;;;;;;;;;;;;;9.75;85.67;101077.88;5032047;27;20100;-68
2022/01/02 04:40:12;;;;;;;;;;;;;;;9.77;85.80;101087.38;5019986;27;20196;-69
2022/01/02 04:42:37;;;;;;;;;;;;;;;9.77;86.87;101100.59;4990234;28;20359;-70
2022/01/02 04:45:02;;;;;;;;;;;;;;;9.76;86.63;101101.53;5011722;27;19927;-71
2022/01/02 04:47:28;;;;;;;;;;;;;;;9.78;87.27;101088.22;5031332;27;19993;-70
2022/01/02 04:49:53;;;;;;;;;;;;;;;9.73;87.60;101091.22;5015698;27;19940;-70
2022/01/02 04:52:18;;;;;;;;;;;;;;;9.69;88.01;101073.09;5034353;27;19963;-69
2022/01/02 04:54:43;;;;;;;;;;;;;;;9.70;88.49;101065.06;5035552;27;20167;-69
2022/01/02 04:57:09;;;;;;;;;;;;;;;9.60;88.98;101064.09;5031914;27;19970;-70
2022/01/02 04:59:36;;;;;;;;;;;;;;;9.60;89.91;101064.09;5050683;27;20536;-69
2022/01/02 05:02:01;;;;;;;;;;;;;;;9.57;89.77;101049.31;5032753;27;19993;-70
2022/01/02 05:04:26;;;;;;;;;;;;;;;9.54;90.48;101051.38;5032087;27;20004;-68
2022/01/02 05:06:52;;;;;;;;;;;;;;;9.48;90.85;101050.06;5050510;27;19959;-69
2022/01/02 05:09:17;;;;;;;;;;;;;;;9.43;91.63;101041.66;5048908;27;20000;-69
2022/01/02 05:11:42;;;;;;;;;;;;;;;9.47;91.40;101040.44;5016637;27;20020;-69
2022/01/02 05:14:08;;;;;;;;;;;;;;;9.47;91.49;101034.34;5015918;27;19911;-69
2022/01/02 05:16:33;;;;;;;;;;;;;;;9.45;91.19;101018.63;5031150;27;19911;-70
2022/01/02 05:18:58;;;;;;;;;;;;;;;9.47;91.09;101023.78;5050849;27;19980;-69
2022/01/02 05:21:23;;;;;;;;;;;;;;;9.46;91.36;101025.56;5032367;27;19929;-68
2022/01/02 05:23:49;;;;;;;;;;;;;;;9.46;90.95;101020.28;5050437;27;20706;-69
2022/01/02 05:26:14;;;;;;;;;;;;;;;9.45;91.41;101011.53;5048919;27;20751;-69
2022/01/02 05:28:39;;;;;;;;;;;;;;;9.44;91.47;101022.22;5030265;27;19912;-69
2022/01/02 05:31:04;;;;;;;;;;;;;;;9.45;91.97;101011.53;5050845;27;20680;-71
2022/01/02 05:33:30;;;;;;;;;;;;;;;9.48;91.54;101002.53;5051612;27;19940;-72
2022/01/02 05:35:55;;;;;;;;;;;;;;;9.39;91.52;101004.09;5029645;27;19915;-70
2022/01/02 05:38:20;;;;;;;;;;;;;;;9.39;92.00;100998.81;5033039;27;20020;-69
2022/01/02 05:40:47;;;;;;;;;;;;;;;9.39;92.48;101008.53;5049263;27;20019;-69
2022/01/02 05:43:12;;;;;;;;;;;;;;;9.44;92.10;101006.38;5024138;27;20711;-68
2022/01/02 05:45:37;;;;;;;;;;;;;;;9.48;92.31;101005.16;5001660;28;19919;-70
2022/01/02 05:48:05;;;;;;;;;;;;;;;9.41;91.96;100988.13;5010173;27;19941;-69
2022/01/02 05:50:30;;;;;;;;;;;;;;;9.43;92.49;100989.69;5029079;27;20963;-68
2022/01/02 05:52:56;;;;;;;;;;;;;;;9.50;92.73;100982.09;5013169;27;19908;-69
2022/01/02 05:55:21;;;;;;;;;;;;;;;9.49;92.71;100980.44;5011138;27;19918;-69
2022/01/02 05:57:46;;;;;;;;;;;;;;;9.57;92.37;100975.34;4993632;27;19899;-70
2022/01/02 06:00:11;;;;;;;;;;;;;;;9.52;92.26;100966.09;5031129;27;19918;-71
2022/01/02 06:02:37;;;;;;;;;;;;;;;9.51;92.33;100952.06;5011786;27;19908;-70
2022/01/02 06:05:02;;;;;;;;;;;;;;;9.52;92.09;100945.84;5030556;27;19979;-68
2022/01/02 06:07:28;;;;;;;;;;;;;;;9.47;92.71;100942.72;5032061;27;20115;-69
2022/01/02 06:09:53;;;;;;;;;;;;;;;9.54;92.78;100951.00;5051871;27;20359;-69
2022/01/02 06:12:18;;;;;;;;;;;;;;;9.57;92.18;100941.00;5034823;27;20146;-70
2022/01/02 06:14:43;;;;;;;;;;;;;;;9.53;92.10;100936.94;5014478;27;20151;-70
2022/01/02 06:17:09;;;;;;;;;;;;;;;9.52;92.50;100924.69;5030775;27;19977;-70
2022/01/02 06:19:34;;;;;;;;;;;;;;;9.52;92.60;100923.84;5014503;27;20011;-71
2022/01/02 06:22:00;;;;;;;;;;;;;;;9.54;91.98;100917.47;5050317;27;19948;-69
2022/01/02 06:24:26;;;;;;;;;;;;;;;9.54;92.00;100917.47;5017006;27;20344;-72
2022/01/02 06:26:51;;;;;;;;;;;;;;;9.57;92.39;100927.78;5015846;27;20733;-71
2022/01/02 06:29:16;;;;;;;;;;;;;;;9.58;92.15;100932.09;5049661;27;20164;-70
2022/01/02 06:31:42;;;;;;;;;;;;;;;9.50;92.38;100950.38;5033376;27;20306;-70
2022/01/02 06:34:07;;;;;;;;;;;;;;;9.56;92.43;100951.69;5052144;27;19907;-70
2022/01/02 06:36:32;;;;;;;;;;;;;;;9.60;92.23;100939.91;5015273;27;20790;-69
2022/01/02 06:38:57;;;;;;;;;;;;;;;9.57;92.18;100938.34;5032676;27;20746;-73
2022/01/02 06:41:23;;;;;;;;;;;;;;;9.57;92.10;100938.34;5052513;27;20760;-71
2022/01/02 06:43:52;;;;;;;;;;;;;;;9.58;91.81;100932.09;5037775;27;19967;-69
2022/01/02 06:46:17;;;;;;;;;;;;;;;9.57;91.54;100925.13;5053291;27;19899;-68
2022/01/02 06:48:42;;;;;;;;;;;;;;;9.62;91.28;100916.84;5028884;27;20198;-69
2022/01/02 06:51:08;;;;;;;;;;;;;;;9.58;91.63;100913.63;5030227;27;19987;-69
2022/01/02 06:53:33;;;;;;;;;;;;;;;9.55;91.80;100903.31;5029036;27;19904;-71
2022/01/02 06:55:58;;;;;;;;;;;;;;;9.55;91.70;100902.47;5028915;27;19911;-68
2022/01/02 06:58:23;;;;;;;;;;;;;;;9.54;92.24;100896.34;5029920;28;19911;-71
2022/01/02 07:00:49;;;;;;;;;;;;;;;9.50;91.91;100894.09;5030032;27;20676;-70
2022/01/02 07:03:14;;;;;;;;;;;;;;;9.53;92.21;100893.81;5027437;28;20690;-70
2022/01/02 07:05:39;;;;;;;;;;;;;;;9.51;91.79;100885.19;5030313;27;20438;-71
2022/01/02 07:08:04;;;;;;;;;;;;;;;9.52;91.68;100879.78;5010864;28;20276;-70
2022/01/02 07:10:30;;;;;;;;;;;;;;;9.54;91.52;100877.84;5020985;27;20100;-71
2022/01/02 07:12:55;;;;;;;;;;;;;;;9.51;91.37;100887.84;5031324;27;19903;-70
2022/01/02 07:15:20;;;;;;;;;;;;;;;9.58;90.85;100879.28;5013487;27;19918;-70
2022/01/02 07:17:45;;;;;;;;;;;;;;;9.59;90.94;100878.31;5027357;27;20455;-70
2022/01/02 07:20:11;;;;;;;;;;;;;;;9.65;89.99;100882.25;5032083;27;19908;-70
2022/01/02 07:22:36;;;;;;;;;;;;;;;9.70;89.53;100868.66;5032664;27;19930;-70
2022/01/02 07:25:01;;;;;;;;;;;;;;;9.66;89.64;100880.44;5034548;27;20266;-70
2022/01/02 07:27:26;;;;;;;;;;;;;;;9.75;88.81;100869.94;5017903;27;19918;-70
2022/01/02 07:29:54;;;;;;;;;;;;;;;9.74;88.71;100865.66;4996164;27;20253;-70
2022/01/02 07:32:20;;;;;;;;;;;;;;;9.78;88.26;100861.75;4998730;27;19926;-69
2022/01/02 07:34:45;;;;;;;;;;;;;;;9.72;88.15;100850.88;4998793;27;20261;-70
2022/01/02 07:37:10;;;;;;;;;;;;;;;9.69;87.92;100835.28;5030750;27;20024;-69
2022/01/02 07:39:35;;;;;;;;;;;;;;;9.72;87.82;100822.63;5014566;27;20008;-69
2022/01/02 07:42:01;;;;;;;;;;;;;;;9.82;86.76;100817.41;5031209;27;20062;-68
2022/01/02 07:44:26;;;;;;;;;;;;;;;9.82;86.34;100796.28;5030453;27;19920;-69
2022/01/02 07:46:51;;;;;;;;;;;;;;;9.79;86.11;100785.97;5029778;27;19907;-69
2022/01/02 07:49:16;;;;;;;;;;;;;;;9.80;85.71;100764.69;5033860;27;20721;-71
2022/01/02 07:51:41;;;;;;;;;;;;;;;9.84;85.41;100767.06;5032954;27;19920;-68
2022/01/02 07:54:07;;;;;;;;;;;;;;;9.86;85.16;100763.31;5033872;27;20322;-68
2022/01/02 07:56:32;;;;;;;;;;;;;;;9.88;84.08;100758.72;4996047;27;19903;-68
2022/01/02 07:58:58;;;;;;;;;;;;;;;9.94;83.46;100755.56;4996287;27;20693;-69
2022/01/02 08:01:23;;;;;;;;;;;;;;;9.94;83.96;100771.44;5032068;27;19900;-69
2022/01/02 08:03:48;;;;;;;;;;;;;;;10.00;83.06;100764.78;5013684;27;19915;-69
2022/01/02 08:06:14;;;;;;;;;;;;;;;10.04;82.13;100745.03;5011963;27;20816;-68
2022/01/02 08:08:39;;;;;;;;;;;;;;;9.99;83.10;100739.31;5031731;27;20683;-68
2022/01/02 08:11:04;;;;;;;;;;;;;;;9.93;83.32;100730.09;5031432;27;20040;-69
2022/01/02 08:13:29;;;;;;;;;;;;;;;10.04;82.12;100737.13;5034113;27;19908;-69
2022/01/02 08:15:55;;;;;;;;;;;;;;;10.02;82.15;100717.06;5027469;27;19904;-69
2022/01/02 08:18:20;;;;;;;;;;;;;;;10.04;81.59;100701.88;5016203;27;19912;-69
2022/01/02 08:20:46;;;;;;;;;;;;;;;10.09;80.97;100705.81;5012565;27;19908;-70
2022/01/02 08:23:12;;;;;;;;;;;;;;;10.12;81.00;100694.13;5030571;27;19967;-68
2022/01/02 08:25:37;;;;;;;;;;;;;;;10.24;79.63;100700.97;5014893;27;19988;-70
2022/01/02 08:28:03;;;;;;;;;;;;;;;10.24;79.74;100700.16;5010144;27;19967;-69
2022/01/02 08:30:28;;;;;;;;;;;;;;;10.22;79.49;100700.25;5011352;27;20164;-69
2022/01/02 08:32:54;;;;;;;;;;;;;;;10.19;79.14;100689.97;4996183;27;19957;-68
2022/01/02 08:35:19;;;;;;;;;;;;;;;10.23;78.94;100682.59;5030679;27;19907;-68
2022/01/02 08:37:44;;;;;;;;;;;;;;;10.30;78.32;100668.69;5033983;27;19907;-68
2022/01/02 08:40:09;;;;;;;;;;;;;;;10.29;78.29;100658.25;5032658;27;19937;-69
2022/01/02 08:42:35;;;;;;;;;;;;;;;10.30;77.57;100671.34;5031039;27;20280;-69
2022/01/02 08:45:00;;;;;;;;;;;;;;;10.37;77.49;100676.94;5032041;27;20045;-70
2022/01/02 08:47:25;;;;;;;;;;;;;;;10.40;76.51;100673.19;5028742;27;19911;-68
2022/01/02 08:49:50;;;;;;;;;;;;;;;10.35;76.91;100664.84;5040778;27;20016;-70
2022/01/02 08:52:16;;;;;;;;;;;;;;;10.35;76.43;100667.47;5046386;27;20012;-71
2022/01/02 08:54:41;;;;;;;;;;;;;;;10.37;76.35;100673.47;5032064;27;20024;-70
2022/01/02 08:57:06;;;;;;;;;;;;;;;10.37;76.88;100665.53;5032047;27;20016;-71
2022/01/02 08:59:31;;;;;;;;;;;;;;;10.41;75.81;100677.53;5031798;27;20748;-69
2022/01/02 09:01:57;;;;;;;;;;;;;;;10.41;76.42;100701.34;5028327;27;20222;-70
2022/01/02 09:04:22;;;;;;;;;;;;;;;10.39;76.50;100714.69;5029332;27;19959;-70
2022/01/02 09:06:47;;;;;;;;;;;;;;;10.49;75.70;100714.69;5020736;27;19954;-70
2022/01/02 09:09:12;;;;;;;;;;;;;;;10.67;75.38;100688.41;5026303;27;19911;-70
2022/01/02 09:11:38;;;;;;;;;;;;;;;10.60;75.12;100681.97;5026082;27;19958;-69
2022/01/02 09:14:03;;;;;;;;;;;;;;;10.52;76.41;100695.91;5030010;27;19908;-70
2022/01/02 09:16:29;;;;;;;;;;;;;;;10.45;76.13;100686.88;5030606;27;20251;-68
2022/01/02 09:18:54;;;;;;;;;;;;;;;10.50;76.40;100711.06;5013506;27;19960;-68
2022/01/02 09:21:19;;;;;;;;;;;;;;;10.43;76.78;100700.19;5027392;27;19940;-70
2022/01/02 09:23:45;;;;;;;;;;;;;;;10.43;77.52;100702.84;4998096;27;19915;-69
2022/01/02 09:26:10;;;;;;;;;;;;;;;10.50;76.10;100708.44;5031899;27;19975;-69
2022/01/02 09:28:35;;;;;;;;;;;;;;;10.54;76.96;100719.59;5029816;27;19911;-67
2022/01/02 09:31:00;;;;;;;;;;;;;;;10.45;76.75;100711.50;5030394;27;20290;-67
2022/01/02 09:33:25;;;;;;;;;;;;;;;10.39;77.05;100706.75;5024313;27;20331;-69
2022/01/02 09:35:51;;;;;;;;;;;;;;;10.42;76.89;100713.56;5019330;27;20260;-68
2022/01/02 09:38:16;;;;;;;;;;;;;;;10.41;77.44;100703.97;4997819;27;19914;-68
2022/01/02 09:40:41;;;;;;;;;;;;;;;10.41;78.13;100709.28;5000667;27;19907;-70
2022/01/02 09:43:07;;;;;;;;;;;;;;;10.29;79.63;100712.00;5012827;27;20002;-70
2022/01/02 09:45:33;;;;;;;;;;;;;;;10.31;78.93;100702.09;5037697;27;19960;-68
2022/01/02 09:47:59;;;;;;;;;;;;;;;10.27;78.78;100698.06;5031724;27;19907;-69
2022/01/02 09:50:24;;;;;;;;;;;;;;;10.30;78.43;100692.50;5032457;27;19904;-69
2022/01/02 09:52:50;;;;;;;;;;;;;;;10.38;78.42;100685.72;5015713;27;19964;-70
2022/01/02 09:55:15;;;;;;;;;;;;;;;10.50;76.59;100687.28;5030923;27;19933;-70
2022/01/02 09:57:41;;;;;;;;;;;;;;;10.50;76.90;100679.34;5033117;27;19908;-67
2022/01/02 10:00:07;;;;;;;;;;;;;;;10.49;77.22;100675.00;5037622;27;20900;-70
2022/01/02 10:02:51;;;;;;;;;;;;;;;10.47;76.90;100677.78;5026190;27;19916;-69
2022/01/02 10:05:16;;;;;;;;;;;;;;;10.57;75.65;100698.16;5040124;27;20917;-68
2022/01/02 10:07:41;;;;;;;;;;;;;;;10.60;76.11;100708.44;5035567;27;19907;-68
2022/01/02 10:10:10;;;;;;;;;;;;;;;10.74;75.48;100693.97;5029329;27;19918;-69
2022/01/02 10:12:35;;;;;;;;;;;;;;;10.72;75.02;100683.53;5016410;27;19923;-67
2022/01/02 10:15:10;;;;;;;;;;;;;;;10.71;75.24;100696.91;5041662;27;19919;-72
2022/01/02 10:17:54;;;;;;;;;;;;;;;10.65;75.80;100707.06;5045204;27;20015;-69
2022/01/02 10:20:20;;;;;;;;;;;;;;;10.63;75.05;100729.34;5032490;27;19918;-68
2022/01/02 10:23:03;;;;;;;;;;;;;;;10.76;74.89;100724.63;5014471;27;19915;-68
2022/01/02 10:25:35;;;;;;;;;;;;;;;10.74;74.03;100712.50;5040400;27;19914;-68
2022/01/02 10:28:02;;;;;;;;;;;;;;;10.75;74.79;100704.41;5033105;27;20555;-70
2022/01/02 10:30:29;;;;;;;;;;;;;;;10.81;74.53;100671.25;5033984;27;19918;-68
2022/01/02 10:32:54;;;;;;;;;;;;;;;10.73;75.89;100668.47;5031959;27;20237;-69
2022/01/02 10:35:21;;;;;;;;;;;;;;;10.81;75.85;100673.91;5030649;27;19968;-69
2022/01/02 10:37:49;;;;;;;;;;;;;;;10.92;75.42;100687.00;5035361;27;19972;-69
2022/01/02 10:40:31;;;;;;;;;;;;;;;11.10;75.12;100689.78;5030400;27;19979;-72
2022/01/02 10:42:56;;;;;;;;;;;;;;;11.31;74.85;100683.47;5048639;27;19912;-71
2022/01/02 10:45:32;;;;;;;;;;;;;;;11.47;73.77;100681.03;5028017;27;20154;-69
2022/01/02 10:47:57;;;;;;;;;;;;;;;11.37;74.08;100669.66;5036329;27;19914;-69
2022/01/02 10:50:22;;;;;;;;;;;;;;;11.27;75.14;100677.63;5013632;27;19911;-69
2022/01/02 10:52:47;;;;;;;;;;;;;;;11.32;73.95;100671.88;5033019;27;20023;-68
2022/01/02 10:55:16;;;;;;;;;;;;;;;11.36;74.47;100667.13;5024178;27;19904;-68
2022/01/02 10:57:49;;;;;;;;;;;;;;;11.35;74.27;100663.63;5031263;28;19911;-71
2022/01/02 11:00:15;;;;;;;;;;;;;;;11.36;74.02;100675.91;5014152;27;19912;-69
2022/01/02 11:02:40;;;;;;;;;;;;;;;11.26;74.80;100675.94;5009521;28;20116;-72
2022/01/02 11:05:06;;;;;;;;;;;;;;;11.34;74.67;100686.66;5014807;27;20226;-71
2022/01/02 11:07:54;;;;;;;;;;;;;;;11.34;74.65;100665.47;5015842;27;20800;-68
2022/01/02 11:10:20;;;;;;;;;;;;;;;11.49;74.64;100675.59;5027166;27;19908;-70
2022/01/02 11:12:45;;;;;;;;;;;;;;;11.67;73.21;100678.31;5018704;27;19976;-70
2022/01/02 11:15:14;;;;;;;;;;;;;;;11.85;71.91;100694.31;5009804;27;20161;-70
2022/01/02 11:17:39;;;;;;;;;;;;;;;11.85;72.00;100692.47;5024697;27;19916;-70
2022/01/02 11:20:05;;;;;;;;;;;;;;;12.00;71.73;100684.91;5023277;27;20168;-69
2022/01/02 11:22:34;;;;;;;;;;;;;;;12.25;71.15;100681.69;5022572;27;20114;-70
2022/01/02 11:25:08;;;;;;;;;;;;;;;12.37;70.57;100677.84;5021180;27;19916;-70
2022/01/02 11:27:58;;;;;;;;;;;;;;;12.49;70.51;100686.41;5012348;27;19952;-69
2022/01/02 11:30:33;;;;;;;;;;;;;;;12.64;70.40;100684.09;5024629;27;20848;-70
2022/01/02 11:33:01;;;;;;;;;;;;;;;12.72;70.23;100686.81;5030663;28;19910;-70
2022/01/02 11:35:27;;;;;;;;;;;;;;;12.84;69.65;100690.06;5029035;27;19912;-69
2022/01/02 11:37:53;;;;;;;;;;;;;;;12.85;69.71;100699.72;5026781;27;19911;-70
2022/01/02 11:40:18;;;;;;;;;;;;;;;12.78;69.64;100694.16;5029467;27;19912;-69
2022/01/02 11:42:45;;;;;;;;;;;;;;;12.88;69.45;100691.44;5034229;28;19918;-71
2022/01/02 11:45:31;;;;;;;;;;;;;;;12.89;69.28;100687.78;5041473;27;19972;-69
2022/01/02 11:47:56;;;;;;;;;;;;;;;12.97;69.76;100698.50;5056312;27;20375;-69
2022/01/02 11:50:30;;;;;;;;;;;;;;;12.88;69.29;100696.75;5052067;27;20893;-68
2022/01/02 11:53:07;;;;;;;;;;;;;;;12.88;69.18;100696.75;5049293;27;20581;-69
2022/01/02 11:55:32;;;;;;;;;;;;;;;12.86;69.24;100704.00;5050663;27;20000;-69
2022/01/02 11:57:58;;;;;;;;;;;;;;;12.86;68.77;100696.03;5031535;27;19925;-70
2022/01/02 12:00:33;;;;;;;;;;;;;;;12.68;69.82;100696.91;5033565;27;20245;-69
2022/01/02 12:02:58;;;;;;;;;;;;;;;12.74;68.81;100710.56;5048405;27;20032;-70
2022/01/02 12:05:23;;;;;;;;;;;;;;;12.70;69.22;100705.56;5004415;27;19922;-70
2022/01/02 12:07:55;;;;;;;;;;;;;;;12.65;69.86;100705.16;4996605;27;19916;-69
2022/01/02 12:10:21;;;;;;;;;;;;;;;12.67;69.06;100699.72;5002499;27;19968;-69
2022/01/02 12:13:06;;;;;;;;;;;;;;;12.75;68.64;100686.50;4995240;27;20372;-71
2022/01/02 12:15:34;;;;;;;;;;;;;;;12.60;68.83;100698.66;5005559;27;19907;-69
2022/01/02 12:18:27;;;;;;;;;;;;;;;12.57;68.71;100691.81;5013189;27;19925;-69
2022/01/02 12:20:52;;;;;;;;;;;;;;;12.62;68.86;100686.03;5031428;27;20025;-69
2022/01/02 12:23:41;;;;;;;;;;;;;;;12.68;68.62;100696.91;5029383;27;20360;-70
2022/01/02 12:26:07;;;;;;;;;;;;;;;12.51;69.49;100689.78;5031738;27;19911;-70
2022/01/02 12:28:58;;;;;;;;;;;;;;;12.60;69.22;100682.72;4996722;27;19911;-68
2022/01/02 12:31:36;;;;;;;;;;;;;;;12.64;68.93;100690.22;5031944;27;19931;-68
2022/01/02 12:34:22;;;;;;;;;;;;;;;12.57;69.07;100677.72;5016656;27;19949;-68
2022/01/02 12:36:51;;;;;;;;;;;;;;;12.48;69.55;100671.47;5028134;27;19957;-68
2022/01/02 12:39:20;;;;;;;;;;;;;;;12.46;69.28;100671.63;5001775;27;19953;-68
2022/01/02 12:41:45;;;;;;;;;;;;;;;12.46;69.63;100670.81;5013167;27;19964;-68